Kegley, West Virginia
Current Conditions -  °F | °C
As of 3:52 AM on Wednesday 22 Oct 2014 (Local Time) from KBLF Reporting Station
Overcast Overcast  
Wind Chill:   Ceiling: 1800
Heat Index:   Visibility: 10mi
Dew Point:   Wind: 8mph
Humidity: 82%   Direction: 300°WNW
Pressure: 30.05"   Gusts: NA
Location:  37.4°N, 81.13°W
Report Text: KBLF 220752Z AUTO 30007KT 10SM OVC018 06/03 A3005 RMK AO2 SLP168 T00560028
Loading
Personal Weather Stations






























Interactive Weather Map
Tropical Storm Tracking
New forecast layout! Learn more

10-Day Weather Forecast

Advertisements
Track Severe Weather on mobile